Riverside, Texas
Current Conditions -  °F | °C
As of 12:53 AM on Thursday 18 Dec 2014 (Local Time) from KUTS Reporting Station
Overcast Overcast  
Wind Chill: 57°   Ceiling: 1100
Heat Index: 57°   Visibility: 10mi
Dew Point: 52°   Wind: 3mph
Humidity: 83%   Direction: 60°ENE
Pressure: 30.1"   Gusts: NA
Location:  30.85°N, 95.4°W
Report Text: KUTS 180653Z AUTO 06003KT 10SM OVC011 14/11 A3010 RMK AO2 SLP191 T01390111
Loading
Personal Weather Stations






























Interactive Weather Map New forecast layout! Learn more

10-Day Weather Forecast

Advertisements
Track Severe Weather on mobile